createdAt,value
2023-05-13T00:00:44.290Z,89.06
2023-05-13T00:01:44.282Z,89.26
2023-05-13T00:02:44.390Z,88.79
2023-05-13T00:03:44.380Z,89.82
2023-05-13T00:04:44.329Z,89.82
2023-05-13T00:05:44.256Z,90.12
2023-05-13T00:06:44.227Z,89.72
2023-05-13T00:07:44.251Z,89.72
2023-05-13T00:08:44.226Z,90.78
2023-05-13T00:09:44.211Z,89.97
2023-05-13T00:10:44.181Z,89.97
2023-05-13T00:11:44.178Z,89.97
2023-05-13T00:12:44.164Z,90.88
2023-05-13T00:13:44.172Z,90.17
2023-05-13T00:14:44.145Z,90.47
2023-05-13T00:15:44.125Z,90.78
2023-05-13T00:16:44.273Z,90.88
2023-05-13T00:17:44.152Z,90.47
2023-05-13T00:18:44.149Z,89.86
2023-05-13T00:19:44.100Z,89.86
2023-05-13T00:20:44.081Z,89.76
2023-05-13T00:21:44.061Z,89.97
2023-05-13T00:22:44.052Z,89.86
2023-05-13T00:23:44.071Z,89.97
2023-05-13T00:24:44.025Z,89.97
2023-05-13T00:25:44.028Z,90.37
2023-05-13T00:26:44.014Z,89.86
2023-05-13T00:27:44.011Z,89.76
2023-05-13T00:28:44.060Z,89.45
2023-05-13T00:29:43.984Z,89.56
2023-05-13T00:30:43.958Z,90.27
2023-05-13T00:31:43.980Z,90.27
2023-05-13T00:32:43.979Z,90.00
2023-05-13T00:33:43.933Z,90.21
2023-05-13T00:34:43.976Z,89.86
2023-05-13T00:35:43.912Z,89.80
2023-05-13T00:36:43.894Z,90.21
2023-05-13T00:37:43.902Z,90.00
2023-05-13T00:38:43.879Z,90.11
2023-05-13T00:39:43.860Z,89.80
2023-05-13T00:40:43.845Z,89.90
2023-05-13T00:41:43.852Z,89.80
2023-05-13T00:42:43.868Z,90.05
2023-05-13T00:43:43.827Z,90.05
2023-05-13T00:44:43.808Z,89.94
2023-05-13T00:45:43.835Z,90.05
2023-05-13T00:46:43.818Z,89.74
2023-05-13T00:47:43.834Z,90.36
2023-05-13T00:48:43.773Z,90.66
2023-05-13T00:49:43.751Z,91.48
2023-05-13T00:50:43.761Z,91.48
2023-05-13T00:51:43.744Z,91.63
2023-05-13T00:52:43.712Z,91.52
2023-05-13T00:53:43.723Z,92.24
2023-05-13T00:54:43.692Z,92.03
2023-05-13T00:55:43.700Z,92.34
2023-05-13T00:56:43.690Z,91.63
2023-05-13T00:57:43.662Z,91.42
2023-05-13T00:58:43.646Z,91.87
2023-05-13T00:59:43.647Z,92.34
2023-05-13T01:00:43.640Z,92.24
2023-05-13T01:01:43.709Z,92.38
2023-05-13T01:02:43.627Z,92.08
2023-05-13T01:03:43.589Z,91.87
2023-05-13T01:04:43.581Z,92.18
2023-05-13T01:05:43.607Z,92.18
2023-05-13T01:06:43.577Z,91.97
2023-05-13T01:07:43.554Z,92.18
2023-05-13T01:08:43.533Z,92.38
2023-05-13T01:09:43.535Z,92.22
2023-05-13T01:10:43.529Z,92.32
2023-05-13T01:11:43.501Z,92.12
2023-05-13T01:12:43.499Z,92.74
2023-05-13T01:13:43.575Z,92.53
2023-05-13T01:14:43.488Z,92.18
2023-05-13T01:15:43.458Z,92.32
2023-05-13T01:16:43.478Z,92.63
2023-05-13T01:17:43.474Z,92.63
2023-05-13T01:18:43.514Z,92.53
2023-05-13T01:19:43.425Z,92.53
2023-05-13T01:20:43.404Z,92.63
2023-05-13T01:21:43.388Z,92.63
2023-05-13T01:22:43.399Z,92.53
2023-05-13T01:23:43.393Z,92.94
2023-05-13T01:24:43.411Z,93.15
2023-05-13T01:25:43.344Z,93.25
2023-05-13T01:26:43.330Z,92.94
2023-05-13T01:27:43.323Z,92.63
2023-05-13T01:28:43.321Z,92.27
2023-05-13T01:29:43.296Z,92.74
2023-05-13T01:30:43.300Z,92.78
2023-05-13T01:31:43.381Z,92.78
2023-05-13T01:32:43.332Z,92.68
2023-05-13T01:33:43.273Z,92.68
2023-05-13T01:34:43.251Z,92.47
2023-05-13T01:35:43.240Z,92.57
2023-05-13T01:36:43.218Z,93.08
2023-05-13T01:37:43.212Z,93.49
2023-05-13T01:38:43.234Z,92.88
2023-05-13T01:39:43.186Z,92.98
2023-05-13T01:40:43.180Z,92.43
2023-05-13T01:41:43.209Z,92.43
2023-05-13T01:42:43.169Z,93.15
2023-05-13T01:43:43.256Z,92.43
2023-05-13T01:44:43.162Z,91.71
2023-05-13T01:45:43.121Z,92.43
2023-05-13T01:46:43.144Z,91.71
2023-05-13T01:47:43.123Z,91.61
2023-05-13T01:48:43.119Z,91.40
2023-05-13T01:49:43.082Z,91.50
2023-05-13T01:50:43.062Z,91.91
2023-05-13T01:51:43.052Z,91.91
2023-05-13T01:52:43.060Z,92.36
2023-05-13T01:53:43.026Z,92.12
2023-05-13T01:54:43.045Z,92.22
2023-05-13T01:55:43.005Z,92.36
2023-05-13T01:56:43.010Z,92.57
2023-05-13T01:57:43.008Z,92.47
2023-05-13T01:58:42.999Z,93.19
2023-05-13T01:59:42.965Z,92.68
2023-05-13T02:00:42.960Z,92.82
2023-05-13T02:01:42.988Z,92.51
2023-05-13T02:02:43.054Z,93.23
2023-05-13T02:03:43.063Z,93.33
2023-05-13T02:04:42.904Z,92.35
2023-05-13T02:05:42.896Z,92.66
2023-05-13T02:06:42.898Z,92.66
2023-05-13T02:07:42.872Z,92.61
2023-05-13T02:08:42.864Z,92.51
2023-05-13T02:09:42.862Z,92.66
2023-05-13T02:10:42.874Z,92.76
2023-05-13T02:11:42.841Z,93.23
2023-05-13T02:12:42.813Z,93.27
2023-05-13T02:13:42.817Z,93.74
2023-05-13T02:14:42.800Z,93.79
2023-05-13T02:15:42.796Z,93.89
2023-05-13T02:16:42.847Z,93.59
2023-05-13T02:17:42.811Z,93.07
2023-05-13T02:18:42.773Z,92.97
2023-05-13T02:19:42.746Z,93.13
2023-05-13T02:20:42.740Z,93.07
2023-05-13T02:21:42.720Z,92.86
2023-05-13T02:22:42.709Z,92.66
2023-05-13T02:23:42.693Z,92.66
2023-05-13T02:24:42.697Z,92.76
2023-05-13T02:25:42.696Z,92.76
2023-05-13T02:26:42.679Z,92.86
2023-05-13T02:27:42.662Z,92.86
2023-05-13T02:28:42.652Z,92.55
2023-05-13T02:29:42.671Z,92.55
2023-05-13T02:30:42.623Z,92.46
2023-05-13T02:31:42.647Z,92.70
2023-05-13T02:32:42.647Z,93.27
2023-05-13T02:33:42.587Z,93.21
2023-05-13T02:34:42.588Z,93.07
2023-05-13T02:35:42.562Z,93.17
2023-05-13T02:36:42.558Z,93.07
2023-05-13T02:37:42.547Z,93.17
2023-05-13T02:38:42.572Z,93.07
2023-05-13T02:39:42.543Z,92.82
2023-05-13T02:40:42.512Z,92.76
2023-05-13T02:41:42.495Z,92.55
2023-05-13T02:42:42.508Z,92.97
2023-05-13T02:43:42.596Z,92.86
2023-05-13T02:44:42.475Z,92.55
2023-05-13T02:45:42.507Z,92.55
2023-05-13T02:46:42.475Z,92.97
2023-05-13T02:47:42.452Z,92.86
2023-05-13T02:48:42.439Z,92.66
2023-05-13T02:49:42.417Z,92.46
2023-05-13T02:50:42.401Z,92.70
2023-05-13T02:51:42.384Z,93.32
2023-05-13T02:52:42.395Z,93.01
2023-05-13T02:53:42.386Z,93.63
2023-05-13T02:54:42.388Z,93.63
2023-05-13T02:55:42.351Z,92.91
2023-05-13T02:56:42.332Z,93.52
2023-05-13T02:57:42.342Z,93.63
2023-05-13T02:58:42.338Z,94.04
2023-05-13T02:59:42.302Z,94.24
2023-05-13T03:00:42.294Z,93.98
2023-05-13T03:01:42.345Z,93.93
2023-05-13T03:02:42.401Z,93.98
2023-05-13T03:03:42.335Z,93.77
2023-05-13T03:04:42.251Z,93.87
2023-05-13T03:05:42.238Z,93.77
2023-05-13T03:06:42.252Z,93.77
2023-05-13T03:07:42.210Z,93.77
2023-05-13T03:08:42.203Z,94.08
2023-05-13T03:09:42.189Z,94.59
2023-05-13T03:10:42.188Z,94.49
2023-05-13T03:11:42.183Z,94.49
2023-05-13T03:12:42.160Z,94.90
2023-05-13T03:13:42.149Z,94.74
2023-05-13T03:14:42.157Z,95.10
2023-05-13T03:15:44.239Z,95.15
2023-05-13T03:16:42.165Z,94.90
2023-05-13T03:17:42.157Z,94.54
2023-05-13T03:18:42.128Z,94.43
2023-05-13T03:19:42.084Z,94.39
2023-05-13T03:20:42.085Z,94.64
2023-05-13T03:21:42.080Z,94.43
2023-05-13T03:22:42.060Z,94.33
2023-05-13T03:23:42.039Z,94.54
2023-05-13T03:24:42.029Z,94.54
2023-05-13T03:25:42.045Z,94.43
2023-05-13T03:26:42.005Z,94.48
2023-05-13T03:27:41.989Z,94.43
2023-05-13T03:28:41.981Z,94.33
2023-05-13T03:29:41.964Z,94.64
2023-05-13T03:30:41.999Z,94.64
2023-05-13T03:31:42.010Z,94.43
2023-05-13T03:32:41.960Z,94.84
2023-05-13T03:33:41.924Z,94.78
2023-05-13T03:34:41.926Z,94.99
2023-05-13T03:35:41.917Z,94.95
2023-05-13T03:36:41.895Z,94.95
2023-05-13T03:37:41.893Z,94.84
2023-05-13T03:38:41.876Z,94.95
2023-05-13T03:39:41.890Z,94.84
2023-05-13T03:40:41.863Z,94.95
2023-05-13T03:41:41.854Z,95.05
2023-05-13T03:42:41.833Z,95.15
2023-05-13T03:43:41.833Z,95.05
2023-05-13T03:44:41.816Z,95.05
2023-05-13T03:45:41.799Z,94.84
2023-05-13T03:46:41.875Z,95.05
2023-05-13T03:47:41.817Z,94.74
2023-05-13T03:48:42.018Z,94.95
2023-05-13T03:49:41.751Z,94.74
2023-05-13T03:50:41.737Z,94.70
2023-05-13T03:51:41.748Z,94.49
2023-05-13T03:52:41.714Z,94.49
2023-05-13T03:53:41.715Z,94.70
2023-05-13T03:54:41.695Z,94.70
2023-05-13T03:55:41.678Z,94.80
2023-05-13T03:56:41.669Z,94.59
2023-05-13T03:57:41.680Z,95.10
2023-05-13T03:58:41.665Z,94.80
2023-05-13T03:59:41.638Z,95.21
2023-05-13T04:00:41.631Z,95.27
2023-05-13T04:01:41.700Z,95.10
2023-05-13T04:02:41.852Z,95.06
2023-05-13T04:03:41.605Z,95.47
2023-05-13T04:04:41.625Z,95.98
2023-05-13T04:05:41.574Z,94.96
2023-05-13T04:06:41.563Z,95.06
2023-05-13T04:07:41.841Z,95.17
2023-05-13T04:08:41.553Z,94.96
2023-05-13T04:09:41.529Z,95.17
2023-05-13T04:10:41.516Z,94.76
2023-05-13T04:11:41.503Z,95.17
2023-05-13T04:12:41.506Z,94.96
2023-05-13T04:13:41.482Z,95.06
2023-05-13T04:14:41.474Z,95.17
2023-05-13T04:15:41.465Z,94.55
2023-05-13T04:16:41.510Z,94.65
2023-05-13T04:17:41.487Z,94.85
2023-05-13T04:18:41.469Z,94.81
2023-05-13T04:19:41.420Z,94.76
2023-05-13T04:20:41.410Z,94.71
2023-05-13T04:21:41.403Z,94.92
2023-05-13T04:22:41.395Z,94.81
2023-05-13T04:23:41.376Z,94.71
2023-05-13T04:24:41.369Z,94.51
2023-05-13T04:25:41.351Z,94.77
2023-05-13T04:26:41.358Z,94.77
2023-05-13T04:27:41.342Z,94.56
2023-05-13T04:28:41.316Z,94.46
2023-05-13T04:29:41.304Z,94.56
2023-05-13T04:30:41.316Z,94.67
2023-05-13T04:31:41.373Z,94.26
2023-05-13T04:32:41.317Z,94.26
2023-05-13T04:33:41.270Z,94.15
2023-05-13T04:34:41.272Z,93.70
2023-05-13T04:35:41.278Z,93.95
2023-05-13T04:36:41.232Z,93.49
2023-05-13T04:37:41.226Z,93.80
2023-05-13T04:38:41.214Z,93.80
2023-05-13T04:39:41.192Z,93.70
2023-05-13T04:40:41.210Z,93.64
2023-05-13T04:41:41.177Z,94.11
2023-05-13T04:42:41.162Z,93.60
2023-05-13T04:43:41.150Z,93.08
2023-05-13T04:44:41.184Z,92.88
2023-05-13T04:45:41.147Z,93.02
2023-05-13T04:46:41.215Z,92.57
2023-05-13T04:47:41.131Z,92.78
2023-05-13T04:48:41.095Z,92.68
2023-05-13T04:49:41.094Z,92.68
2023-05-13T04:50:41.095Z,92.94
2023-05-13T04:51:41.065Z,93.04
2023-05-13T04:52:41.051Z,92.94
2023-05-13T04:53:41.041Z,92.83
2023-05-13T04:54:41.045Z,92.63
2023-05-13T04:55:41.028Z,92.08
2023-05-13T04:56:41.009Z,92.28
2023-05-13T04:57:41.000Z,92.28
2023-05-13T04:58:41.010Z,92.38
2023-05-13T04:59:40.998Z,92.38
2023-05-13T05:00:40.956Z,92.18
2023-05-13T05:01:41.052Z,92.44
2023-05-13T05:02:40.961Z,92.44
2023-05-13T05:03:40.950Z,92.18
2023-05-13T05:04:40.918Z,92.24
2023-05-13T05:05:40.904Z,92.55
2023-05-13T05:06:40.913Z,92.44
2023-05-13T05:07:40.883Z,92.34
2023-05-13T05:08:40.884Z,92.34
2023-05-13T05:09:40.856Z,92.44
2023-05-13T05:10:40.848Z,92.44
2023-05-13T05:11:40.838Z,92.14
2023-05-13T05:12:40.845Z,92.55
2023-05-13T05:13:40.842Z,91.93
2023-05-13T05:14:40.809Z,92.55
2023-05-13T05:15:40.788Z,92.18
2023-05-13T05:16:40.792Z,92.65
2023-05-13T05:17:40.924Z,92.65
2023-05-13T05:18:40.850Z,92.10
2023-05-13T05:19:40.761Z,91.69
2023-05-13T05:20:40.734Z,91.74
2023-05-13T05:21:40.752Z,91.72
2023-05-13T05:22:40.762Z,89.84
2023-05-13T05:23:40.706Z,88.88
2023-05-13T05:24:40.694Z,87.82
2023-05-13T05:25:40.703Z,87.41
2023-05-13T05:26:42.782Z,85.94
2023-05-13T05:27:40.676Z,85.63
2023-05-13T05:28:40.668Z,84.88
2023-05-13T05:29:40.636Z,84.47
2023-05-13T05:30:40.634Z,84.17
2023-05-13T05:31:40.701Z,83.82
2023-05-13T05:32:40.631Z,84.12
2023-05-13T05:33:40.589Z,82.70
2023-05-13T05:34:40.588Z,83.21
2023-05-13T05:35:40.586Z,82.46
2023-05-13T05:36:40.570Z,82.21
2023-05-13T05:37:40.558Z,82.32
2023-05-13T05:38:40.554Z,82.07
2023-05-13T05:39:40.546Z,80.90
2023-05-13T05:40:40.533Z,80.90
2023-05-13T05:41:40.506Z,80.93
2023-05-13T05:42:40.492Z,81.24
2023-05-13T05:43:40.497Z,81.88
2023-05-13T05:44:40.491Z,82.32
2023-05-13T05:45:40.516Z,83.09
2023-05-13T05:46:40.447Z,80.72
2023-05-13T05:47:40.454Z,79.52
2023-05-13T05:48:40.424Z,79.49
2023-05-13T05:49:40.450Z,77.32
2023-05-13T05:50:40.434Z,77.38
2023-05-13T05:51:40.415Z,77.38
2023-05-13T05:52:40.377Z,75.22
2023-05-13T05:53:40.380Z,74.00
2023-05-13T05:54:40.402Z,74.41
2023-05-13T05:55:40.346Z,75.22
2023-05-13T05:56:40.335Z,75.42
2023-05-13T05:57:40.338Z,75.86
2023-05-13T05:58:40.333Z,77.66
2023-05-13T05:59:40.376Z,78.37
2023-05-13T06:00:40.290Z,78.85
2023-05-13T06:01:40.288Z,79.86
2023-05-13T06:02:40.345Z,80.62
2023-05-13T06:03:40.372Z,80.92
2023-05-13T06:04:40.314Z,81.67
2023-05-13T06:05:40.237Z,82.24
2023-05-13T06:06:40.284Z,81.19
2023-05-13T06:07:40.212Z,80.91
2023-05-13T06:08:40.238Z,80.26
2023-05-13T06:09:40.190Z,78.40
2023-05-13T06:10:40.251Z,77.75
2023-05-13T06:11:40.169Z,77.11
2023-05-13T06:12:40.155Z,75.79
2023-05-13T06:13:40.187Z,74.84
2023-05-13T06:14:40.130Z,75.96
2023-05-13T06:15:40.135Z,75.15
2023-05-13T06:16:40.111Z,75.35
2023-05-13T06:17:40.169Z,73.83
2023-05-13T06:18:40.150Z,75.96
2023-05-13T06:19:40.084Z,75.04
2023-05-13T06:20:40.075Z,74.81
2023-05-13T06:21:40.056Z,74.20
2023-05-13T06:22:40.057Z,74.98
2023-05-13T06:23:40.038Z,73.36
2023-05-13T06:24:40.029Z,73.43
2023-05-13T06:25:40.009Z,71.70
2023-05-13T06:26:40.030Z,71.50
2023-05-13T06:27:40.005Z,71.70
2023-05-13T06:28:39.973Z,71.50
2023-05-13T06:29:39.974Z,72.48
2023-05-13T06:30:39.951Z,73.05
2023-05-13T06:31:39.998Z,72.95
2023-05-13T06:32:47.286Z,72.04
2023-05-13T06:33:40.926Z,72.44
2023-05-13T06:34:39.922Z,73.15
2023-05-13T06:35:39.907Z,72.11
2023-05-13T06:36:39.900Z,72.91
2023-05-13T06:37:39.880Z,72.38
2023-05-13T06:38:39.862Z,71.44
2023-05-13T06:39:39.855Z,69.21
2023-05-13T06:40:39.849Z,69.95
2023-05-13T06:41:39.858Z,71.23
2023-05-13T06:42:39.865Z,70.59
2023-05-13T06:43:39.810Z,68.77
2023-05-13T06:44:39.802Z,68.51
2023-05-13T06:45:39.856Z,67.80
2023-05-13T06:46:39.896Z,68.17
2023-05-13T06:47:39.818Z,69.38
2023-05-13T06:48:39.765Z,70.46
2023-05-13T06:49:39.743Z,68.65
2023-05-13T06:50:39.755Z,68.71
2023-05-13T06:51:39.718Z,71.47
2023-05-13T06:52:41.268Z,71.13
2023-05-13T06:53:39.698Z,68.21
2023-05-13T06:54:39.686Z,69.42
2023-05-13T06:55:39.693Z,68.01
2023-05-13T06:56:39.667Z,68.21
2023-05-13T06:57:43.480Z,67.40
2023-05-13T06:58:39.677Z,67.40
2023-05-13T06:59:39.646Z,68.51
2023-05-13T07:00:39.657Z,66.39
2023-05-13T07:01:39.642Z,68.38
2023-05-13T07:02:39.747Z,64.48
2023-05-13T07:03:39.596Z,65.62
2023-05-13T07:04:39.590Z,66.53
2023-05-13T07:05:39.572Z,64.41
2023-05-13T07:06:39.555Z,65.78
2023-05-13T07:07:39.540Z,67.57
2023-05-13T07:08:39.524Z,66.13
2023-05-13T07:09:39.546Z,66.53
2023-05-13T07:10:39.509Z,65.39
2023-05-13T07:11:39.505Z,66.09
2023-05-13T07:12:39.482Z,66.13
2023-05-13T07:13:40.077Z,63.31
2023-05-13T07:14:39.517Z,63.42
2023-05-13T07:15:39.451Z,64.45
2023-05-13T07:16:39.463Z,66.03
2023-05-13T07:17:39.545Z,64.29
2023-05-13T07:18:39.480Z,62.64
2023-05-13T07:19:39.419Z,65.16
2023-05-13T07:20:39.400Z,64.72
2023-05-13T07:21:39.419Z,65.12
2023-05-13T07:22:39.385Z,62.71
2023-05-13T07:23:39.394Z,63.31
2023-05-13T07:24:39.352Z,66.30
2023-05-13T07:25:39.378Z,68.38
2023-05-13T07:26:39.323Z,64.16
2023-05-13T07:27:39.334Z,62.15
2023-05-13T07:28:39.755Z,62.95
2023-05-13T07:29:39.331Z,61.87
2023-05-13T07:30:39.335Z,65.87
2023-05-13T07:31:39.279Z,62.85
2023-05-13T07:32:39.361Z,63.15
2023-05-13T07:33:39.259Z,62.62
2023-05-13T07:34:39.262Z,62.42
2023-05-13T07:35:39.234Z,61.69
2023-05-13T07:36:39.218Z,61.21
2023-05-13T07:37:39.225Z,63.19
2023-05-13T07:38:39.193Z,62.66
2023-05-13T07:39:39.183Z,61.96
2023-05-13T07:40:39.172Z,60.28
2023-05-13T07:41:39.175Z,62.33
2023-05-13T07:42:39.160Z,60.85
2023-05-13T07:43:39.150Z,60.72
2023-05-13T07:44:39.133Z,60.25
2023-05-13T07:45:39.140Z,60.18
2023-05-13T07:46:39.174Z,60.18
2023-05-13T07:47:39.145Z,62.89
2023-05-13T07:48:39.085Z,62.36
2023-05-13T07:49:39.093Z,60.55
2023-05-13T07:50:39.073Z,62.96
2023-05-13T07:51:39.069Z,61.93
2023-05-13T07:52:39.039Z,60.82
2023-05-13T07:53:39.031Z,60.89
2023-05-13T07:54:39.023Z,60.80
2023-05-13T07:55:39.025Z,60.57
2023-05-13T07:56:39.016Z,59.89
2023-05-13T07:57:38.993Z,60.42
2023-05-13T07:58:38.982Z,61.49
2023-05-13T07:59:38.972Z,62.86
2023-05-13T08:00:38.974Z,61.86
2023-05-13T08:01:38.945Z,62.33
2023-05-13T08:02:39.175Z,62.07
2023-05-13T08:03:39.085Z,61.44
2023-05-13T08:04:38.980Z,60.71
2023-05-13T08:05:38.914Z,61.91
2023-05-13T08:06:40.120Z,60.98
2023-05-13T08:07:38.884Z,61.05
2023-05-13T08:08:38.875Z,61.35
2023-05-13T08:09:38.894Z,59.68
2023-05-13T08:10:38.849Z,59.20
2023-05-13T08:11:38.827Z,60.11
2023-05-13T08:12:38.813Z,59.91
2023-05-13T08:13:38.816Z,62.95
2023-05-13T08:14:38.825Z,60.22
2023-05-13T08:15:38.787Z,59.59
2023-05-13T08:16:38.871Z,59.92
2023-05-13T08:17:38.842Z,60.28
2023-05-13T08:18:38.825Z,59.95
2023-05-13T08:19:38.903Z,59.92
2023-05-13T08:20:38.735Z,60.42
2023-05-13T08:21:38.716Z,59.19
2023-05-13T08:22:38.711Z,58.99
2023-05-13T08:23:45.449Z,58.97
2023-05-13T08:24:39.722Z,57.76
2023-05-13T08:25:38.689Z,57.87
2023-05-13T08:26:38.665Z,58.34
2023-05-13T08:27:38.656Z,58.29
2023-05-13T08:28:38.684Z,59.09
2023-05-13T08:29:38.640Z,59.22
2023-05-13T08:30:38.638Z,60.68
2023-05-13T08:31:38.746Z,61.84
2023-05-13T08:32:38.650Z,62.11
2023-05-13T08:33:38.612Z,60.98
2023-05-13T08:34:38.597Z,60.12
2023-05-13T08:35:38.572Z,59.79
2023-05-13T08:36:38.557Z,60.59
2023-05-13T08:37:38.584Z,59.77
2023-05-13T08:38:38.565Z,61.16
2023-05-13T08:39:38.525Z,59.36
2023-05-13T08:40:38.517Z,56.77
2023-05-13T08:41:38.507Z,56.59
2023-05-13T08:42:38.512Z,57.22
2023-05-13T08:43:38.524Z,57.24
2023-05-13T08:44:38.469Z,57.82
2023-05-13T08:45:38.474Z,58.92
2023-05-13T08:46:38.641Z,59.09
2023-05-13T08:47:38.521Z,58.94
2023-05-13T08:48:38.438Z,58.39
2023-05-13T08:49:38.425Z,56.67
2023-05-13T08:50:38.430Z,60.86
2023-05-13T08:51:38.419Z,57.04
2023-05-13T08:52:38.402Z,58.01
2023-05-13T08:53:38.380Z,58.15
2023-05-13T08:54:38.370Z,55.26
2023-05-13T08:55:38.357Z,56.33
2023-05-13T08:56:38.358Z,54.94
2023-05-13T08:57:38.386Z,55.13
2023-05-13T08:58:38.391Z,55.21
2023-05-13T08:59:38.321Z,54.38
2023-05-13T09:00:38.309Z,54.88
2023-05-13T09:01:38.361Z,54.26
2023-05-13T09:02:38.332Z,55.01
2023-05-13T09:03:38.271Z,57.95
2023-05-13T09:04:38.300Z,55.74
2023-05-13T09:05:39.195Z,58.56
2023-05-13T09:06:38.286Z,57.92
2023-05-13T09:07:38.223Z,60.15
2023-05-13T09:08:38.224Z,60.71
2023-05-13T09:09:38.212Z,62.71
2023-05-13T09:10:38.206Z,60.81
2023-05-13T09:11:38.183Z,61.61
2023-05-13T09:12:38.173Z,61.21
2023-05-13T09:13:38.164Z,62.77
2023-05-13T09:14:38.156Z,62.20
2023-05-13T09:15:38.192Z,64.51
2023-05-13T09:16:38.172Z,63.81
2023-05-13T09:17:38.150Z,64.51
2023-05-13T09:18:38.176Z,64.78
2023-05-13T09:19:38.202Z,63.50
2023-05-13T09:20:38.114Z,63.67
2023-05-13T09:21:38.104Z,63.34
2023-05-13T09:22:38.081Z,62.74
2023-05-13T09:23:38.057Z,62.77
2023-05-13T09:24:38.063Z,62.47
2023-05-13T09:25:38.046Z,63.07
2023-05-13T09:26:38.016Z,62.47
2023-05-13T09:27:38.013Z,62.77
2023-05-13T09:28:38.005Z,62.70
2023-05-13T09:29:38.000Z,62.47
2023-05-13T09:30:37.980Z,62.37
2023-05-13T09:31:38.029Z,61.54
2023-05-13T09:32:38.006Z,60.71
2023-05-13T09:33:37.949Z,59.92
2023-05-13T09:34:37.975Z,59.62
2023-05-13T09:35:37.928Z,59.49
2023-05-13T09:36:37.909Z,59.30
2023-05-13T09:37:37.902Z,58.47
2023-05-13T09:38:37.911Z,58.34
2023-05-13T09:39:37.922Z,57.48
2023-05-13T09:40:37.860Z,57.21
2023-05-13T09:41:37.847Z,58.45
2023-05-13T09:42:37.835Z,57.73
2023-05-13T09:43:37.842Z,56.70
2023-05-13T09:44:37.819Z,59.23
2023-05-13T09:45:37.821Z,56.92
2023-05-13T09:46:37.849Z,56.52
2023-05-13T09:47:37.797Z,57.02
2023-05-13T09:48:37.786Z,56.12
2023-05-13T09:49:37.768Z,53.53
2023-05-13T09:50:37.754Z,52.67
2023-05-13T09:51:37.738Z,52.97
2023-05-13T09:52:37.742Z,53.14
2023-05-13T09:53:37.740Z,53.81
2023-05-13T09:54:37.730Z,54.48
2023-05-13T09:55:37.709Z,51.45
2023-05-13T09:56:37.687Z,51.82
2023-05-13T09:57:37.695Z,51.67
2023-05-13T09:58:37.668Z,51.05
2023-05-13T09:59:47.730Z,51.92
2023-05-13T10:01:48.474Z,50.23
2023-05-13T10:02:48.429Z,52.99
2023-05-13T10:03:48.366Z,50.31
2023-05-13T10:04:48.347Z,51.22
2023-05-13T10:05:48.310Z,52.29
2023-05-13T10:06:48.305Z,51.42
2023-05-13T10:07:48.285Z,47.37
2023-05-13T10:08:48.276Z,47.66
2023-05-13T10:09:48.274Z,47.39
2023-05-13T10:10:48.290Z,46.12
2023-05-13T10:11:48.269Z,45.44
2023-05-13T10:12:48.234Z,46.54
2023-05-13T10:13:48.216Z,47.21
2023-05-13T10:14:48.201Z,46.77
2023-05-13T10:15:48.211Z,48.86
2023-05-13T10:16:48.243Z,52.02
2023-05-13T10:17:48.191Z,46.97
2023-05-13T10:18:48.198Z,46.17
2023-05-13T10:19:48.157Z,45.50
2023-05-13T10:20:48.162Z,48.80
2023-05-13T10:21:48.133Z,47.49
2023-05-13T10:22:48.115Z,47.66
2023-05-13T10:23:48.109Z,51.10
2023-05-13T10:24:48.098Z,49.88
2023-05-13T10:25:48.139Z,48.25
2023-05-13T10:26:48.075Z,46.48
2023-05-13T10:27:48.066Z,48.10
2023-05-13T10:28:48.056Z,47.10
2023-05-13T10:29:59.447Z,45.31
2023-05-13T10:30:48.072Z,44.84
2023-05-13T10:31:48.062Z,45.06
2023-05-13T10:32:48.033Z,45.65
2023-05-13T10:33:48.028Z,46.84
2023-05-13T10:34:48.004Z,47.02
2023-05-13T10:35:47.972Z,48.99
2023-05-13T10:36:48.015Z,48.79
2023-05-13T10:39:00.200Z,45.36
2023-05-13T10:40:00.334Z,45.42
2023-05-13T10:42:12.010Z,47.06
2023-05-13T10:45:31.503Z,46.04
2023-05-13T10:45:41.409Z,46.73
2023-05-13T10:46:47.752Z,46.22
2023-05-13T10:47:41.577Z,47.31
2023-05-13T10:48:41.892Z,45.14
2023-05-13T10:49:41.387Z,46.44
2023-05-13T10:50:41.352Z,45.36
2023-05-13T10:51:41.314Z,49.43
2023-05-13T10:52:41.340Z,45.64
2023-05-13T10:53:41.390Z,46.54
2023-05-13T10:54:41.317Z,47.69
2023-05-13T10:55:41.326Z,46.57
2023-05-13T10:56:41.258Z,46.08
2023-05-13T10:57:41.394Z,45.08
2023-05-13T10:58:41.330Z,43.59
2023-05-13T10:59:41.251Z,45.08
2023-05-13T11:00:41.251Z,45.36
2023-05-13T11:01:41.268Z,44.58
2023-05-13T11:02:41.338Z,46.08
2023-05-13T11:03:41.362Z,45.12
2023-05-13T11:04:41.198Z,45.72
2023-05-13T11:05:41.365Z,46.91
2023-05-13T11:06:41.214Z,46.81
2023-05-13T11:07:41.215Z,48.46
2023-05-13T11:08:41.152Z,49.15
2023-05-13T11:09:41.145Z,48.55
2023-05-13T11:10:41.150Z,46.68
2023-05-13T11:11:41.178Z,46.83
2023-05-13T11:12:41.223Z,48.05
2023-05-13T11:13:41.210Z,49.15
2023-05-13T11:14:41.102Z,50.54
2023-05-13T11:15:41.069Z,48.93
2023-05-13T11:16:41.300Z,49.05
2023-05-13T11:17:42.453Z,48.13
2023-05-13T11:18:41.175Z,47.53
2023-05-13T11:19:41.025Z,47.03
2023-05-13T11:20:51.543Z,49.62
2023-05-13T11:21:42.018Z,48.02
2023-05-13T11:22:41.021Z,48.93
2023-05-13T11:23:42.159Z,48.72
2023-05-13T11:24:40.961Z,48.38
2023-05-13T11:25:40.972Z,46.86
2023-05-13T11:26:40.953Z,47.14
2023-05-13T11:27:40.936Z,46.44
2023-05-13T11:28:40.914Z,45.74
2023-05-13T11:29:40.923Z,45.54
2023-05-13T11:30:40.915Z,45.14
2023-05-13T11:31:40.933Z,45.14
2023-05-13T11:32:40.913Z,45.26
2023-05-13T11:33:40.861Z,45.84
2023-05-13T11:34:40.856Z,46.73
2023-05-13T11:35:40.885Z,48.11
2023-05-13T11:36:40.836Z,47.29
2023-05-13T11:37:40.834Z,45.92
2023-05-13T11:38:40.818Z,45.82
2023-05-13T11:39:40.888Z,45.82
2023-05-13T11:40:40.810Z,45.62
2023-05-13T11:41:40.792Z,45.70
2023-05-13T11:42:40.775Z,43.65
2023-05-13T11:43:40.785Z,44.87
2023-05-13T11:44:40.752Z,45.26
2023-05-13T11:45:40.770Z,47.53
2023-05-13T11:46:40.747Z,44.53
2023-05-13T11:47:40.745Z,46.51
2023-05-13T11:48:40.701Z,47.99
2023-05-13T11:49:40.707Z,45.40
2023-05-13T11:50:40.679Z,44.80
2023-05-13T11:51:40.671Z,44.40
2023-05-13T11:52:40.659Z,43.77
2023-05-13T11:53:40.659Z,44.87
2023-05-13T11:54:40.645Z,43.97
2023-05-13T11:55:40.620Z,45.14
2023-05-13T11:56:40.615Z,44.59
2023-05-13T11:57:40.604Z,45.06
2023-05-13T11:58:40.608Z,43.67
2023-05-13T11:59:47.990Z,45.47
2023-05-13T12:00:41.571Z,43.99
2023-05-13T12:01:40.580Z,45.39
2023-05-13T12:02:41.075Z,43.89
2023-05-13T12:03:40.568Z,44.57
2023-05-13T12:04:40.553Z,43.97
2023-05-13T12:05:40.704Z,46.78
2023-05-13T12:06:40.510Z,43.89
2023-05-13T12:07:40.880Z,43.71
2023-05-13T12:08:40.499Z,43.51
2023-05-13T12:09:40.487Z,45.09
2023-05-13T12:10:40.464Z,44.79
2023-05-13T12:11:40.454Z,44.87
2023-05-13T12:12:40.471Z,45.34
2023-05-13T12:13:40.430Z,45.92
2023-05-13T12:14:40.419Z,45.22
2023-05-13T12:15:40.495Z,45.00
2023-05-13T12:16:40.406Z,44.80
2023-05-13T12:17:40.460Z,44.80
2023-05-13T12:18:40.413Z,44.70
2023-05-13T12:19:40.371Z,45.42
2023-05-13T12:20:40.357Z,45.14
2023-05-13T12:21:40.362Z,45.24
2023-05-13T12:22:40.355Z,45.47
2023-05-13T12:23:40.333Z,44.59
2023-05-13T12:24:40.316Z,44.91
2023-05-13T12:25:40.322Z,45.40
2023-05-13T12:26:40.309Z,46.61
2023-05-13T12:27:40.278Z,46.91
2023-05-13T12:28:40.273Z,47.10
2023-05-13T12:29:40.255Z,45.10
2023-05-13T12:30:40.256Z,47.20
2023-05-13T12:31:40.317Z,45.43
2023-05-13T12:32:40.303Z,45.93
2023-05-13T12:33:40.240Z,46.11
2023-05-13T12:34:40.213Z,45.10
2023-05-13T12:35:40.233Z,47.90
2023-05-13T12:36:40.317Z,47.10
2023-05-13T12:37:40.167Z,47.53
2023-05-13T12:38:40.158Z,47.63
2023-05-13T12:39:40.151Z,49.60
2023-05-13T12:40:40.159Z,49.48
2023-05-13T12:41:40.123Z,48.48
2023-05-13T12:42:40.126Z,47.58
2023-05-13T12:43:40.101Z,47.58
2023-05-13T12:44:40.094Z,47.48
2023-05-13T12:45:42.596Z,47.18
2023-05-13T12:46:40.146Z,46.88
2023-05-13T12:47:40.095Z,48.58
2023-05-13T12:48:40.063Z,47.60
2023-05-13T12:49:40.929Z,46.61
2023-05-13T12:50:40.040Z,45.61
2023-05-13T12:51:40.023Z,47.40
2023-05-13T12:52:40.005Z,46.92
2023-05-13T12:53:40.017Z,48.22
2023-05-13T12:54:39.998Z,46.50
2023-05-13T12:55:40.373Z,47.60
2023-05-13T12:56:39.961Z,46.80
2023-05-13T12:57:39.958Z,45.90